Time;durP1;ratioP1;P1;durP2;ratioP2;P2;SDS_P1;SDS_P2;PMS_P1;PMS_P2;Temp;Humidity;BMP_temperature;BMP_pressure;BME280_temperature;BME280_humidity;BME280_pressure;Samples;Min_cycle;Max_cycle;Signal;HPM_P1;HPM_P2
2023/07/08 00:01:55;;;;;;;7.57;5.53;;;22.30;99.90;;;;;;5084231;28;20028;-70
2023/07/08 00:04:22;;;;;;;7.68;4.95;;;22.30;99.90;;;;;;5085521;28;20025;-70
2023/07/08 00:06:48;;;;;;;9.85;4.70;;;22.30;99.90;;;;;;5090179;28;20074;-70
2023/07/08 00:09:13;;;;;;;6.80;4.68;;;22.30;99.90;;;;;;5080007;28;20366;-70
2023/07/08 00:11:39;;;;;;;7.10;5.40;;;22.30;99.90;;;;;;5089810;28;20047;-70
2023/07/08 00:14:05;;;;;;;6.82;5.18;;;22.30;99.90;;;;;;5089039;28;20103;-70
2023/07/08 00:16:30;;;;;;;5.53;4.35;;;22.20;99.90;;;;;;5082268;28;20695;-70
2023/07/08 00:18:56;;;;;;;9.52;5.38;;;22.30;99.90;;;;;;5080711;28;20024;-70
2023/07/08 00:21:22;;;;;;;7.82;5.10;;;22.20;99.90;;;;;;5084107;28;20507;-70
2023/07/08 00:23:49;;;;;;;9.15;4.88;;;22.20;99.90;;;;;;5087352;28;20024;-70
2023/07/08 00:26:25;;;;;;;7.43;4.50;;;22.20;99.90;;;;;;5082667;28;20025;-70
2023/07/08 00:28:51;;;;;;;7.47;5.20;;;22.10;99.90;;;;;;5081439;28;20488;-70
2023/07/08 00:31:16;;;;;;;8.48;5.38;;;22.20;99.90;;;;;;5082611;28;20031;-70
2023/07/08 00:33:42;;;;;;;10.18;5.78;;;22.10;99.90;;;;;;5078241;28;20081;-70
2023/07/08 00:36:14;;;;;;;7.22;5.45;;;22.10;99.90;;;;;;5086015;28;20102;-70
2023/07/08 00:38:44;;;;;;;8.25;5.68;;;22.10;99.90;;;;;;5081266;28;20028;-70
2023/07/08 00:41:29;;;;;;;6.80;5.50;;;22.00;99.90;;;;;;5080513;28;20135;-70
2023/07/08 00:43:57;;;;;;;5.78;5.22;;;22.00;99.90;;;;;;5083238;28;20103;-70
2023/07/08 00:46:31;;;;;;;6.75;4.47;;;22.00;99.90;;;;;;5079297;28;20510;-70
2023/07/08 00:49:25;;;;;;;7.80;5.32;;;22.00;99.90;;;;;;5084807;28;20497;-70
2023/07/08 00:51:51;;;;;;;6.53;4.57;;;21.90;99.90;;;;;;5078624;28;20039;-70
2023/07/08 00:54:19;;;;;;;11.10;5.70;;;21.90;99.90;;;;;;5079133;28;20021;-71
2023/07/08 00:56:47;;;;;;;9.88;5.30;;;21.90;99.90;;;;;;5086037;28;20044;-70
2023/07/08 00:59:36;;;;;;;7.07;5.60;;;21.90;99.90;;;;;;5083330;28;20040;-70
2023/07/08 01:02:06;;;;;;;11.77;5.20;;;21.80;99.90;;;;;;5078369;28;20036;-70
2023/07/08 01:05:04;;;;;;;5.65;4.78;;;21.80;99.90;;;;;;5079087;28;20027;-70
2023/07/08 01:07:32;;;;;;;7.70;5.80;;;21.80;99.90;;;;;;5087856;28;20039;-70
2023/07/08 01:10:04;;;;;;;9.77;4.68;;;21.80;99.90;;;;;;5082616;28;20165;-70
2023/07/08 01:12:38;;;;;;;5.68;4.90;;;21.80;99.90;;;;;;5084757;28;20056;-70
2023/07/08 01:15:07;;;;;;;5.97;5.07;;;21.80;99.90;;;;;;5077325;28;20469;-70
2023/07/08 01:17:33;;;;;;;8.63;5.50;;;21.70;99.90;;;;;;5077862;28;20026;-70
2023/07/08 01:20:00;;;;;;;6.85;5.60;;;21.70;99.90;;;;;;5079420;28;20028;-70
2023/07/08 01:22:31;;;;;;;6.82;5.25;;;21.70;99.90;;;;;;5084426;28;20047;-70
2023/07/08 01:25:02;;;;;;;6.55;5.18;;;21.60;99.90;;;;;;5084927;28;20040;-70
2023/07/08 01:27:30;;;;;;;5.90;4.88;;;21.60;99.90;;;;;;5087946;28;20436;-70
2023/07/08 01:29:57;;;;;;;9.15;5.57;;;21.60;99.90;;;;;;5086085;28;20400;-70
2023/07/08 01:32:23;;;;;;;8.93;5.45;;;21.60;99.90;;;;;;5081923;28;20027;-70
2023/07/08 01:34:59;;;;;;;7.57;5.13;;;21.50;99.90;;;;;;5084038;28;20103;-70
2023/07/08 01:37:46;;;;;;;7.22;5.63;;;21.40;99.90;;;;;;5083299;28;20736;-70
2023/07/08 01:40:33;;;;;;;6.50;5.70;;;21.50;99.90;;;;;;5079912;28;20029;-70
2023/07/08 01:43:00;;;;;;;6.68;5.15;;;21.40;99.90;;;;;;5083901;28;20032;-70
2023/07/08 01:45:30;;;;;;;8.82;5.90;;;21.40;99.90;;;;;;5081775;28;20031;-70
2023/07/08 01:48:11;;;;;;;7.78;6.07;;;21.30;99.90;;;;;;5079233;28;20481;-70
2023/07/08 01:50:42;;;;;;;8.10;5.50;;;21.30;99.90;;;;;;5080427;28;20081;-70
2023/07/08 01:53:13;;;;;;;6.72;5.20;;;21.20;99.90;;;;;;5085620;28;20032;-70
2023/07/08 01:55:39;;;;;;;6.43;5.45;;;21.20;99.90;;;;;;5080532;28;20024;-70
2023/07/08 01:58:05;;;;;;;5.78;5.10;;;21.20;99.90;;;;;;5080698;28;20035;-70
2023/07/08 02:00:30;;;;;;;10.98;5.55;;;21.20;99.90;;;;;;5078396;28;20025;-70
2023/07/08 02:02:56;;;;;;;6.68;5.28;;;21.10;99.90;;;;;;5081330;28;20039;-70
2023/07/08 02:05:23;;;;;;;5.95;5.40;;;21.10;99.90;;;;;;5079921;28;20029;-70
2023/07/08 02:07:49;;;;;;;6.90;6.18;;;21.10;99.90;;;;;;5081605;28;20028;-70
2023/07/08 02:10:14;;;;;;;5.95;5.35;;;21.10;99.90;;;;;;5084555;28;20076;-70
2023/07/08 02:12:40;;;;;;;10.60;5.60;;;21.00;99.90;;;;;;5082839;28;20039;-70
2023/07/08 02:15:08;;;;;;;7.38;6.28;;;20.90;99.90;;;;;;5085966;28;20020;-70
2023/07/08 02:17:33;;;;;;;8.20;5.85;;;21.00;99.90;;;;;;5084182;28;20045;-70
2023/07/08 02:19:59;;;;;;;9.13;5.90;;;20.90;99.90;;;;;;5090792;28;20382;-70
2023/07/08 02:22:25;;;;;;;9.07;5.72;;;20.90;99.90;;;;;;5084668;28;20036;-70
2023/07/08 02:24:50;;;;;;;6.63;5.85;;;20.90;99.90;;;;;;5082516;28;20031;-71
2023/07/08 02:27:16;;;;;;;11.30;6.05;;;20.90;99.90;;;;;;5089899;28;20024;-70
2023/07/08 02:29:42;;;;;;;7.45;5.60;;;20.80;99.90;;;;;;5085605;28;20074;-70
2023/07/08 02:32:09;;;;;;;6.28;5.47;;;20.80;99.90;;;;;;5081886;28;20120;-70
2023/07/08 02:34:36;;;;;;;10.27;5.80;;;20.80;99.90;;;;;;5089592;28;20031;-70
2023/07/08 02:37:02;;;;;;;6.53;5.80;;;20.80;99.90;;;;;;5083341;28;20081;-70
2023/07/08 02:39:27;;;;;;;9.23;5.72;;;20.70;99.90;;;;;;5080139;28;20024;-70
2023/07/08 02:41:53;;;;;;;10.68;5.68;;;20.70;99.90;;;;;;5083137;28;20096;-70
2023/07/08 02:44:19;;;;;;;7.22;5.45;;;20.70;99.90;;;;;;5081690;28;20027;-70
2023/07/08 02:46:44;;;;;;;10.27;5.95;;;20.60;99.90;;;;;;5084352;28;20115;-70
2023/07/08 02:49:10;;;;;;;9.60;5.93;;;20.50;99.90;;;;;;5088717;28;20430;-70
2023/07/08 02:51:36;;;;;;;6.82;5.80;;;20.50;99.90;;;;;;5081099;28;20035;-70
2023/07/08 02:54:01;;;;;;;8.35;6.25;;;20.50;99.90;;;;;;5086093;28;20085;-70
2023/07/08 02:56:27;;;;;;;6.97;6.05;;;20.50;99.90;;;;;;5081230;28;20032;-70
2023/07/08 02:58:53;;;;;;;6.00;5.40;;;20.40;99.90;;;;;;5081991;28;20112;-70
2023/07/08 03:01:19;;;;;;;8.50;5.95;;;20.40;99.90;;;;;;5086136;28;20502;-69
2023/07/08 03:03:48;;;;;;;8.27;5.82;;;20.40;99.90;;;;;;5084888;28;20028;-70
2023/07/08 03:06:14;;;;;;;9.18;6.25;;;20.40;99.90;;;;;;5082533;28;20118;-70
2023/07/08 03:08:40;;;;;;;8.73;5.95;;;20.40;99.90;;;;;;5084507;28;20480;-70
2023/07/08 03:11:08;;;;;;;8.75;6.28;;;20.30;99.90;;;;;;5080230;28;20020;-70
2023/07/08 03:13:34;;;;;;;9.65;6.95;;;20.30;99.90;;;;;;5083171;28;20028;-70
2023/07/08 03:16:08;;;;;;;9.65;6.72;;;20.30;99.90;;;;;;5091459;28;20023;-70
2023/07/08 03:18:38;;;;;;;13.27;7.05;;;20.30;99.90;;;;;;5080920;28;20468;-70
2023/07/08 03:21:05;;;;;;;9.18;7.32;;;20.20;99.90;;;;;;5085010;28;20024;-70
2023/07/08 03:23:31;;;;;;;9.00;6.40;;;20.10;99.90;;;;;;5077250;28;20036;-70
2023/07/08 03:25:56;;;;;;;7.70;6.45;;;20.00;99.90;;;;;;5078317;28;20039;-70
2023/07/08 03:28:22;;;;;;;13.02;6.82;;;20.10;99.90;;;;;;5081190;28;20477;-70
2023/07/08 03:30:52;;;;;;;7.50;5.78;;;20.10;99.90;;;;;;5082626;28;20029;-70
2023/07/08 03:33:17;;;;;;;8.77;6.85;;;20.10;99.90;;;;;;5085076;28;20103;-70
2023/07/08 03:35:43;;;;;;;8.60;6.50;;;20.10;99.90;;;;;;5082396;28;20158;-70
2023/07/08 03:38:09;;;;;;;6.82;5.97;;;20.00;99.90;;;;;;5083967;28;20027;-70
2023/07/08 03:40:34;;;;;;;8.13;6.00;;;20.00;99.90;;;;;;5077814;28;20492;-70
2023/07/08 03:43:00;;;;;;;8.02;6.75;;;20.00;99.90;;;;;;5086108;28;20043;-70
2023/07/08 03:45:26;;;;;;;7.18;5.90;;;20.00;99.90;;;;;;5087258;28;20024;-70
2023/07/08 03:47:52;;;;;;;9.68;6.03;;;20.00;99.90;;;;;;5083899;28;20455;-70
2023/07/08 03:50:19;;;;;;;6.35;5.72;;;20.00;99.90;;;;;;5080629;28;20086;-70
2023/07/08 03:52:46;;;;;;;6.00;4.75;;;20.00;99.90;;;;;;5083083;28;20056;-70
2023/07/08 03:55:13;;;;;;;7.80;5.43;;;20.00;99.90;;;;;;5081498;28;20033;-70
2023/07/08 03:57:38;;;;;;;7.55;5.90;;;19.80;99.90;;;;;;5082574;28;20035;-70
2023/07/08 04:00:06;;;;;;;6.07;5.40;;;19.90;99.90;;;;;;5079974;28;20028;-70
2023/07/08 04:02:32;;;;;;;8.52;5.97;;;19.90;99.90;;;;;;5083941;28;20036;-70
2023/07/08 04:04:57;;;;;;;8.30;5.68;;;19.80;99.90;;;;;;5080356;28;20080;-70
2023/07/08 04:07:23;;;;;;;6.85;6.03;;;19.80;99.90;;;;;;5083726;28;20079;-70
2023/07/08 04:09:50;;;;;;;6.85;6.13;;;19.80;99.90;;;;;;5076381;28;20062;-70
2023/07/08 04:12:16;;;;;;;6.55;5.82;;;19.70;99.90;;;;;;5081056;28;20103;-69
2023/07/08 04:14:42;;;;;;;6.38;5.60;;;19.70;99.90;;;;;;5081081;28;20020;-70
2023/07/08 04:17:09;;;;;;;8.23;6.55;;;19.70;99.90;;;;;;5083048;28;20070;-70
2023/07/08 04:19:35;;;;;;;8.30;6.15;;;19.70;99.90;;;;;;5086775;28;20037;-70
2023/07/08 04:22:02;;;;;;;7.25;5.50;;;19.70;99.90;;;;;;5078258;28;20028;-70
2023/07/08 04:24:28;;;;;;;7.22;6.43;;;19.70;99.90;;;;;;5081996;28;20381;-70
2023/07/08 04:26:54;;;;;;;6.47;5.90;;;19.60;99.90;;;;;;5081922;28;20028;-70
2023/07/08 04:29:21;;;;;;;10.38;6.25;;;19.70;99.90;;;;;;5081552;28;20514;-70
2023/07/08 04:31:48;;;;;;;7.85;6.20;;;19.70;99.90;;;;;;5079492;28;20037;-70
2023/07/08 04:34:14;;;;;;;6.20;5.60;;;19.70;99.90;;;;;;5082417;28;20031;-70
2023/07/08 04:36:40;;;;;;;6.97;6.15;;;19.70;99.90;;;;;;5080343;28;20043;-70
2023/07/08 04:39:08;;;;;;;7.53;6.32;;;19.60;99.90;;;;;;5079488;28;20025;-70
2023/07/08 04:41:40;;;;;;;10.68;6.70;;;19.60;99.90;;;;;;5084006;28;20112;-70
2023/07/08 04:44:10;;;;;;;10.07;6.00;;;19.70;99.90;;;;;;5077146;28;20377;-70
2023/07/08 04:46:44;;;;;;;8.18;6.10;;;19.70;99.90;;;;;;5081502;28;20085;-70
2023/07/08 04:49:10;;;;;;;6.72;5.75;;;19.70;99.90;;;;;;5082204;28;20067;-70
2023/07/08 04:51:40;;;;;;;7.72;5.80;;;19.70;99.90;;;;;;5078608;28;20064;-70
2023/07/08 04:54:06;;;;;;;7.18;5.95;;;19.80;99.90;;;;;;5086925;28;20115;-70
2023/07/08 04:56:38;;;;;;;9.93;6.75;;;19.80;99.90;;;;;;5088305;28;20523;-70
2023/07/08 04:59:04;;;;;;;9.27;6.35;;;19.80;99.90;;;;;;5087840;28;20043;-70
2023/07/08 05:01:29;;;;;;;9.32;5.55;;;19.70;99.90;;;;;;5092356;28;20032;-70
2023/07/08 05:03:55;;;;;;;8.70;5.90;;;19.70;99.90;;;;;;5079782;28;20028;-70
2023/07/08 05:06:21;;;;;;;7.93;5.45;;;19.70;99.90;;;;;;5075872;28;20032;-70
2023/07/08 05:08:46;;;;;;;6.45;5.32;;;19.70;99.90;;;;;;5081335;28;20024;-70
2023/07/08 05:11:12;;;;;;;6.88;6.20;;;19.70;99.90;;;;;;5083147;28;20156;-70
2023/07/08 05:13:38;;;;;;;6.43;5.72;;;19.80;99.90;;;;;;5079099;28;20020;-70
2023/07/08 05:16:03;;;;;;;6.32;5.72;;;19.80;99.90;;;;;;5077635;28;20388;-70
2023/07/08 05:18:29;;;;;;;6.28;5.68;;;19.90;99.90;;;;;;5078757;28;20043;-70
2023/07/08 05:20:56;;;;;;;8.30;5.90;;;19.90;99.90;;;;;;5079356;28;20095;-70
2023/07/08 05:23:21;;;;;;;8.82;6.13;;;19.80;99.90;;;;;;5086453;28;20040;-70
2023/07/08 05:25:47;;;;;;;6.35;5.75;;;19.90;99.90;;;;;;5087178;28;20480;-70
2023/07/08 05:28:13;;;;;;;7.20;6.47;;;19.90;99.90;;;;;;5080846;28;20032;-70
2023/07/08 05:30:40;;;;;;;7.78;6.10;;;20.00;99.90;;;;;;5085573;28;20028;-70
2023/07/08 05:33:06;;;;;;;6.45;5.75;;;20.00;99.90;;;;;;5079454;28;20031;-70
2023/07/08 05:35:32;;;;;;;8.98;6.63;;;20.00;99.90;;;;;;5079058;28;20035;-70
2023/07/08 05:37:58;;;;;;;7.20;6.15;;;20.10;99.90;;;;;;5081183;28;20027;-70
2023/07/08 05:40:24;;;;;;;6.85;6.00;;;20.10;99.90;;;;;;5078952;28;20031;-70
2023/07/08 05:42:50;;;;;;;7.45;5.50;;;20.20;99.90;;;;;;5083712;28;20488;-70
2023/07/08 05:45:15;;;;;;;7.22;6.10;;;20.20;99.90;;;;;;5087136;28;20031;-70
2023/07/08 05:47:41;;;;;;;8.30;5.63;;;20.20;99.90;;;;;;5087145;28;20029;-70
2023/07/08 05:50:07;;;;;;;7.20;5.93;;;20.10;99.90;;;;;;5081396;28;20028;-70
2023/07/08 05:52:33;;;;;;;8.85;6.80;;;20.20;99.90;;;;;;5081725;28;20358;-70
2023/07/08 05:54:59;;;;;;;5.63;5.13;;;20.20;99.90;;;;;;5085975;28;20035;-70
2023/07/08 05:57:24;;;;;;;9.55;6.20;;;20.20;99.90;;;;;;5083375;28;20024;-70
2023/07/08 05:59:51;;;;;;;6.75;6.03;;;20.20;99.90;;;;;;5086875;28;20051;-69
2023/07/08 06:02:19;;;;;;;8.02;5.97;;;20.30;99.90;;;;;;5081496;28;20098;-70
2023/07/08 06:04:45;;;;;;;8.80;5.75;;;20.30;99.90;;;;;;5082668;28;20035;-70
2023/07/08 06:07:10;;;;;;;11.25;6.70;;;20.30;99.90;;;;;;5084086;28;20033;-69
2023/07/08 06:09:36;;;;;;;7.32;5.82;;;20.30;99.90;;;;;;5082461;28;20028;-70
2023/07/08 06:12:02;;;;;;;8.25;5.97;;;20.30;99.90;;;;;;5083390;28;20052;-70
2023/07/08 06:14:28;;;;;;;7.90;6.25;;;20.40;99.90;;;;;;5084722;28;20028;-69
2023/07/08 06:16:54;;;;;;;7.80;6.70;;;20.40;99.90;;;;;;5083444;28;20036;-69
2023/07/08 06:19:20;;;;;;;8.20;6.40;;;20.40;99.90;;;;;;5081437;28;20468;-69
2023/07/08 06:21:46;;;;;;;6.82;5.88;;;20.40;99.90;;;;;;5081026;28;20051;-69
2023/07/08 06:24:12;;;;;;;14.93;8.23;;;20.50;99.90;;;;;;5083102;28;20055;-70
2023/07/08 06:26:37;;;;;;;13.60;8.32;;;20.60;99.90;;;;;;5081492;28;20735;-70
2023/07/08 06:29:04;;;;;;;13.85;8.45;;;20.70;99.90;;;;;;5082212;28;20119;-70
2023/07/08 06:31:30;;;;;;;10.50;8.02;;;20.80;99.90;;;;;;5086116;28;20610;-70
2023/07/08 06:33:55;;;;;;;9.55;6.72;;;20.80;99.90;;;;;;5087327;28;20122;-70
2023/07/08 06:36:22;;;;;;;11.75;7.75;;;20.90;99.90;;;;;;5086779;28;20153;-70
2023/07/08 06:38:48;;;;;;;10.82;6.82;;;20.80;99.90;;;;;;5082184;28;20027;-70
2023/07/08 06:41:14;;;;;;;9.57;7.03;;;20.90;99.90;;;;;;5083993;28;20116;-68
2023/07/08 06:43:40;;;;;;;11.45;7.40;;;21.00;99.90;;;;;;5088971;28;20114;-68
2023/07/08 06:46:06;;;;;;;14.63;7.55;;;21.20;99.90;;;;;;5081678;28;20119;-68
2023/07/08 06:48:32;;;;;;;13.07;7.53;;;21.20;99.90;;;;;;5082662;28;20067;-67
2023/07/08 06:50:58;;;;;;;10.60;6.13;;;21.40;99.90;;;;;;5088491;28;20020;-67
2023/07/08 06:53:24;;;;;;;11.20;7.18;;;21.50;99.90;;;;;;5074860;28;20470;-67
2023/07/08 06:55:50;;;;;;;12.35;6.20;;;21.50;99.90;;;;;;5082730;28;20020;-67
2023/07/08 06:58:16;;;;;;;10.93;7.00;;;21.60;99.90;;;;;;5080298;28;20040;-67
2023/07/08 07:00:45;;;;;;;8.85;6.25;;;21.70;99.90;;;;;;5076363;28;20103;-67
2023/07/08 07:03:12;;;;;;;9.45;6.63;;;21.80;99.90;;;;;;5078514;28;20041;-67
2023/07/08 07:05:39;;;;;;;14.32;7.47;;;22.00;99.90;;;;;;5082476;28;20016;-67
2023/07/08 07:08:06;;;;;;;12.95;7.30;;;22.20;99.90;;;;;;5085779;28;20099;-67
2023/07/08 07:10:32;;;;;;;13.73;8.15;;;22.40;99.90;;;;;;5083348;28;20016;-67
2023/07/08 07:12:59;;;;;;;12.32;8.38;;;22.60;99.90;;;;;;5078170;28;20027;-66
2023/07/08 07:15:24;;;;;;;13.98;8.65;;;22.90;99.90;;;;;;5084681;28;20070;-67
2023/07/08 07:17:50;;;;;;;15.68;8.30;;;23.10;99.90;;;;;;5084868;28;20028;-67
2023/07/08 07:20:16;;;;;;;12.00;8.38;;;23.20;99.90;;;;;;5079844;28;20461;-66
2023/07/08 07:22:42;;;;;;;15.77;9.25;;;23.30;99.90;;;;;;5083552;28;20028;-66
2023/07/08 07:25:08;;;;;;;12.07;8.10;;;23.50;99.90;;;;;;5079607;28;20021;-67
2023/07/08 07:27:33;;;;;;;11.80;7.72;;;23.60;99.90;;;;;;5091047;28;20082;-66
2023/07/08 07:29:59;;;;;;;15.10;7.78;;;23.70;99.90;;;;;;5086871;28;20464;-66
2023/07/08 07:32:26;;;;;;;16.17;7.80;;;23.80;99.90;;;;;;5079082;28;20495;-66
2023/07/08 07:34:52;;;;;;;12.93;9.10;;;24.00;99.90;;;;;;5082509;28;20028;-67
2023/07/08 07:37:20;;;;;;;18.48;9.23;;;24.10;99.90;;;;;;5091311;28;20025;-67
2023/07/08 07:39:46;;;;;;;14.30;8.30;;;24.30;99.90;;;;;;5085975;28;20059;-67
2023/07/08 07:42:13;;;;;;;13.85;7.95;;;24.40;99.90;;;;;;5083233;28;20058;-68
2023/07/08 07:44:42;;;;;;;14.02;8.88;;;24.50;99.90;;;;;;5089846;28;20017;-66
2023/07/08 07:47:09;;;;;;;16.33;8.30;;;24.50;99.90;;;;;;5085211;28;20086;-68
2023/07/08 07:49:35;;;;;;;13.98;8.15;;;24.70;99.90;;;;;;5078542;28;20024;-67
2023/07/08 07:52:01;;;;;;;12.10;8.30;;;24.90;99.90;;;;;;5086303;28;20020;-67
2023/07/08 07:54:27;;;;;;;12.85;8.93;;;25.10;99.90;;;;;;5091101;28;20059;-67
2023/07/08 07:56:53;;;;;;;11.02;7.32;;;25.20;99.90;;;;;;5085383;28;20431;-66
2023/07/08 07:59:18;;;;;;;11.80;7.65;;;25.40;99.90;;;;;;5082000;28;20036;-67
2023/07/08 08:01:44;;;;;;;13.88;7.80;;;25.50;99.90;;;;;;5082449;28;20096;-67
2023/07/08 08:04:10;;;;;;;12.40;8.30;;;25.70;99.90;;;;;;5083681;28;20526;-68
2023/07/08 08:06:36;;;;;;;12.75;8.82;;;25.80;99.90;;;;;;5081543;28;20074;-67
2023/07/08 08:09:03;;;;;;;12.63;8.30;;;25.90;99.90;;;;;;5080864;28;20040;-67
2023/07/08 08:11:29;;;;;;;13.20;7.93;;;26.10;99.90;;;;;;5083858;28;20020;-67
2023/07/08 08:13:56;;;;;;;10.80;7.70;;;26.40;99.90;;;;;;5073355;28;20035;-67
2023/07/08 08:16:22;;;;;;;11.43;8.55;;;26.30;99.90;;;;;;5080508;28;20103;-67
2023/07/08 08:18:48;;;;;;;13.40;8.70;;;26.30;99.90;;;;;;5081420;28;20135;-67
2023/07/08 08:21:14;;;;;;;11.95;8.65;;;26.40;99.90;;;;;;5076422;28;20475;-67
2023/07/08 08:23:39;;;;;;;12.27;8.43;;;26.50;99.90;;;;;;5073996;28;20021;-67
2023/07/08 08:26:05;;;;;;;13.27;8.77;;;26.60;99.90;;;;;;5078391;28;20100;-67
2023/07/08 08:28:31;;;;;;;12.38;9.07;;;26.80;99.90;;;;;;5078378;28;20111;-68
2023/07/08 08:30:56;;;;;;;12.95;9.43;;;26.90;99.90;;;;;;5084073;28;20028;-67
2023/07/08 08:33:22;;;;;;;12.40;9.18;;;27.00;99.90;;;;;;5080737;28;20032;-67
2023/07/08 08:35:48;;;;;;;11.77;9.05;;;27.10;99.90;;;;;;5079399;28;20465;-67
2023/07/08 08:38:14;;;;;;;14.65;8.05;;;27.30;99.90;;;;;;5080098;28;20112;-67
2023/07/08 08:40:42;;;;;;;14.57;8.52;;;27.30;99.90;;;;;;5080133;28;20063;-66
2023/07/08 08:43:14;;;;;;;15.95;8.55;;;27.30;99.90;;;;;;5083067;28;20032;-66
2023/07/08 08:46:05;;;;;;;9.38;8.20;;;27.60;99.90;;;;;;5079955;28;20016;-66
2023/07/08 08:48:48;;;;;;;11.00;8.02;;;27.70;99.90;;;;;;5077737;28;20029;-66
2023/07/08 08:51:15;;;;;;;15.13;8.35;;;27.80;99.90;;;;;;5065220;28;20645;-67
2023/07/08 08:53:41;;;;;;;13.85;9.70;;;27.90;99.90;;;;;;5085004;28;20028;-69
2023/07/08 08:56:36;;;;;;;18.23;9.38;;;28.10;99.90;;;;;;5064748;28;22914;-68
2023/07/08 08:59:12;;;;;;;9.75;8.32;;;28.20;99.90;;;;;;5081869;28;20085;-68
2023/07/08 09:01:38;;;;;;;11.60;8.73;;;28.40;99.90;;;;;;5095658;28;20036;-69
2023/07/08 09:04:16;;;;;;;13.73;8.60;;;28.60;99.90;;;;;;5096782;28;20456;-70
2023/07/08 09:06:43;;;;;;;13.93;8.82;;;28.80;99.90;;;;;;5097058;28;20480;-68
2023/07/08 09:09:45;;;;;;;12.40;9.48;;;28.90;99.90;;;;;;5100582;28;20088;-68
2023/07/08 09:12:20;;;;;;;14.85;8.82;;;29.10;99.90;;;;;;5079112;28;20047;-68
2023/07/08 09:14:47;;;;;;;12.40;9.13;;;29.20;99.90;;;;;;5095844;28;21220;-69
2023/07/08 09:17:34;;;;;;;16.05;8.73;;;29.30;99.90;;;;;;5099725;28;20122;-68
2023/07/08 09:20:16;;;;;;;16.23;9.18;;;29.50;99.90;;;;;;5095083;28;20465;-70
2023/07/08 09:22:44;;;;;;;;;;;29.70;99.90;;;;;;5093535;28;20111;-68
2023/07/08 09:25:25;;;;;;;12.60;8.45;;;29.80;99.90;;;;;;5096915;28;19920;-68
2023/07/08 09:27:51;;;;;;;13.55;8.88;;;30.00;99.90;;;;;;5096166;28;20024;-68
2023/07/08 09:30:21;;;;;;;11.73;8.07;;;30.00;99.90;;;;;;5099091;28;20099;-68
2023/07/08 09:32:48;;;;;;;16.02;8.82;;;30.00;99.90;;;;;;5096919;28;20123;-69
2023/07/08 09:35:40;;;;;;;10.43;8.02;;;30.30;99.90;;;;;;5096202;28;20031;-68
2023/07/08 09:38:13;;;;;;;13.45;8.57;;;30.60;99.90;;;;;;5092645;28;20114;-68
2023/07/08 09:40:38;;;;;;;11.10;8.65;;;30.90;99.90;;;;;;5096358;28;20024;-68
2023/07/08 09:43:27;;;;;;;16.85;8.35;;;31.00;99.90;;;;;;5097044;28;20043;-68
2023/07/08 09:45:58;;;;;;;11.73;8.88;;;31.00;99.90;;;;;;5096308;28;20020;-68
2023/07/08 09:48:28;;;;;;;15.18;9.35;;;31.20;99.90;;;;;;5094920;28;20081;-70
2023/07/08 09:50:56;;;;;;;12.80;9.32;;;31.30;99.90;;;;;;5096083;28;20032;-67
2023/07/08 09:53:22;;;;;;;17.27;9.20;;;31.40;98.20;;;;;;5097057;28;20379;-68
2023/07/08 09:55:50;;;;;;;11.68;8.70;;;31.30;98.40;;;;;;5094980;28;20103;-68
2023/07/08 09:58:37;;;;;;;14.07;8.43;;;31.40;98.10;;;;;;5084378;28;20490;-69
2023/07/08 10:01:12;;;;;;;12.60;7.35;;;31.60;99.70;;;;;;5095057;28;20019;-68
2023/07/08 10:03:38;;;;;;;12.98;7.78;;;31.80;96.10;;;;;;5094618;28;20478;-68
2023/07/08 10:06:17;;;;;;;10.27;7.78;;;31.80;94.80;;;;;;5100021;28;20051;-69
2023/07/08 10:08:44;;;;;;;11.35;8.07;;;32.00;94.40;;;;;;5099409;28;20157;-69
2023/07/08 10:11:29;;;;;;;12.85;8.45;;;32.10;93.80;;;;;;5096744;28;20036;-70
2023/07/08 10:14:11;;;;;;;13.43;8.57;;;32.20;95.30;;;;;;5090489;28;20163;-70
2023/07/08 10:16:37;;;;;;;12.20;8.17;;;32.30;96.50;;;;;;5096456;28;20487;-70
2023/07/08 10:19:16;;;;;;;15.82;8.50;;;32.30;94.10;;;;;;5096195;28;20038;-70
2023/07/08 10:21:51;;;;;;;11.45;8.88;;;32.40;93.90;;;;;;5091742;28;20056;-70
2023/07/08 10:24:45;;;;;;;14.45;8.35;;;32.60;91.70;;;;;;5095264;28;20048;-69
2023/07/08 10:27:16;;;;;;;9.55;7.93;;;32.70;92.60;;;;;;5096246;28;20032;-70
2023/07/08 10:30:07;;;;;;;11.38;8.48;;;32.90;92.30;;;;;;5101082;28;20035;-71
2023/07/08 10:32:33;;;;;;;11.18;8.10;;;32.70;90.80;;;;;;5101842;28;20088;-69
2023/07/08 10:35:04;;;;;;;12.68;8.57;;;32.90;92.00;;;;;;5096930;28;20028;-69
2023/07/08 10:37:44;;;;;;;11.30;8.60;;;33.00;92.10;;;;;;5099693;28;20064;-69
2023/07/08 10:40:16;;;;;;;10.95;7.60;;;33.00;90.90;;;;;;5095268;28;20035;-70
2023/07/08 10:43:32;;;;;;;14.30;8.20;;;33.20;93.00;;;;;;5099725;28;20055;-68
2023/07/08 10:46:12;;;;;;;13.73;7.85;;;33.30;89.30;;;;;;5089048;28;20044;-68
2023/07/08 10:49:16;;;;;;;12.30;8.15;;;33.40;91.20;;;;;;5095026;28;20027;-68
2023/07/08 10:52:25;;;;;;;11.48;7.57;;;33.30;90.90;;;;;;5101354;28;20030;-71
2023/07/08 10:54:57;;;;;;;11.07;8.27;;;33.40;91.00;;;;;;5095955;28;20489;-69
2023/07/08 10:57:43;;;;;;;13.43;9.07;;;33.50;90.80;;;;;;5090333;28;20024;-70
2023/07/08 11:00:30;;;;;;;10.82;7.75;;;33.70;90.10;;;;;;5095447;28;20036;-70
2023/07/08 11:03:25;;;;;;;13.23;8.02;;;33.60;91.20;;;;;;5089968;28;20395;-70
2023/07/08 11:06:01;;;;;;;13.25;8.60;;;33.50;88.10;;;;;;5095606;28;20483;-72
2023/07/08 11:08:37;;;;;;;17.05;7.82;;;33.60;88.00;;;;;;5098354;28;20471;-70
2023/07/08 11:11:15;;;;;;;10.55;7.38;;;33.80;91.30;;;;;;5101272;28;20030;-70
2023/07/08 11:13:58;;;;;;;11.88;8.48;;;33.60;89.60;;;;;;5095126;28;20027;-68
2023/07/08 11:16:45;;;;;;;14.88;8.25;;;33.50;89.70;;;;;;5090499;28;20027;-68
2023/07/08 11:19:19;;;;;;;10.98;7.88;;;33.70;88.00;;;;;;5097036;28;20059;-69
2023/07/08 11:21:50;;;;;;;9.45;7.85;;;33.90;90.60;;;;;;5099390;28;20027;-69
2023/07/08 11:24:37;;;;;;;9.57;8.35;;;34.00;90.10;;;;;;5093623;28;20081;-69
2023/07/08 11:27:29;;;;;;;8.77;7.72;;;34.10;87.50;;;;;;5094627;28;20087;-69
2023/07/08 11:30:04;;;;;;;10.27;8.20;;;34.30;90.60;;;;;;5088990;28;20109;-69
2023/07/08 11:32:31;;;;;;;12.23;8.50;;;34.30;87.30;;;;;;5094920;28;20027;-69
2023/07/08 11:35:00;;;;;;;11.15;9.10;;;34.30;87.00;;;;;;5089168;28;20023;-69
2023/07/08 11:37:26;;;;;;;12.63;8.65;;;34.50;88.20;;;;;;5098301;28;20046;-69
2023/07/08 11:40:04;;;;;;;10.45;7.57;;;34.60;87.10;;;;;;5095930;28;20044;-69
2023/07/08 11:42:32;;;;;;;11.27;7.82;;;34.50;90.60;;;;;;5093526;28;20044;-69
2023/07/08 11:44:59;;;;;;;10.95;7.43;;;34.40;87.70;;;;;;5100395;28;20028;-69
2023/07/08 11:47:34;;;;;;;10.43;8.68;;;34.60;89.10;;;;;;5088769;28;20025;-71
2023/07/08 11:50:01;;;;;;;14.30;8.52;;;34.50;87.50;;;;;;5097110;28;20027;-70
2023/07/08 11:52:29;;;;;;;10.52;8.32;;;34.50;89.10;;;;;;5099080;28;20034;-70
2023/07/08 11:55:02;;;;;;;14.45;8.40;;;34.60;84.90;;;;;;5096794;28;20016;-70
2023/07/08 11:57:35;;;;;;;10.13;7.57;;;34.60;83.40;;;;;;5101673;28;20028;-70
2023/07/08 12:00:22;;;;;;;12.73;7.53;;;34.30;85.20;;;;;;5099504;28;20028;-69
2023/07/08 12:02:58;;;;;;;11.75;8.07;;;34.60;85.70;;;;;;5097965;28;20047;-70
2023/07/08 12:05:38;;;;;;;11.43;8.20;;;34.80;84.10;;;;;;5098180;28;20489;-70
2023/07/08 12:08:13;;;;;;;10.35;8.27;;;34.70;85.00;;;;;;5089986;28;20030;-69
2023/07/08 12:10:51;;;;;;;10.27;7.07;;;34.80;86.70;;;;;;5096750;28;20081;-70
2023/07/08 12:13:21;;;;;;;9.75;6.78;;;34.90;85.50;;;;;;5098833;28;20053;-70
2023/07/08 12:15:47;;;;;;;14.07;7.75;;;35.00;83.90;;;;;;5101451;28;20345;-69
2023/07/08 12:18:13;;;;;;;10.25;7.25;;;35.00;86.10;;;;;;5099057;28;20030;-70
2023/07/08 12:20:41;;;;;;;12.60;7.68;;;34.80;83.70;;;;;;5101101;28;20433;-70
2023/07/08 12:23:20;;;;;;;9.52;7.10;;;34.80;81.30;;;;;;5086507;28;20064;-70
2023/07/08 12:25:47;;;;;;;14.98;7.60;;;35.10;82.30;;;;;;5096455;28;20077;-69
2023/07/08 12:28:14;;;;;;;9.93;6.63;;;35.20;82.50;;;;;;5095701;28;20015;-70
2023/07/08 12:30:41;;;;;;;8.57;7.68;;;35.30;82.20;;;;;;5101535;27;20035;-70
2023/07/08 12:33:32;;;;;;;15.18;7.57;;;35.40;84.40;;;;;;5088918;28;20023;-69
2023/07/08 12:36:00;;;;;;;12.90;8.02;;;35.50;80.90;;;;;;5101048;28;20020;-70
2023/07/08 12:38:33;;;;;;;11.63;8.07;;;35.40;77.20;;;;;;5099442;28;20181;-71
2023/07/08 12:41:01;;;;;;;10.07;7.13;;;35.40;79.90;;;;;;5092803;28;20157;-70
2023/07/08 12:43:27;;;;;;;8.65;6.82;;;35.50;80.50;;;;;;5096533;28;20019;-71
2023/07/08 12:45:53;;;;;;;8.77;7.00;;;35.50;80.40;;;;;;5094775;28;20766;-71
2023/07/08 12:48:18;;;;;;;9.60;6.63;;;35.20;76.50;;;;;;5087346;28;20107;-70
2023/07/08 12:50:44;;;;;;;9.45;7.43;;;35.40;82.60;;;;;;5097585;27;20023;-71
2023/07/08 12:53:12;;;;;;;8.48;7.65;;;35.40;80.50;;;;;;5098624;28;20043;-70
2023/07/08 12:55:40;;;;;;;11.93;7.35;;;35.50;73.20;;;;;;5100252;28;20046;-69
2023/07/08 12:58:09;;;;;;;8.20;7.43;;;35.40;82.10;;;;;;5094562;28;20016;-69